createdAt,value
2018-07-24T00:01:42.239Z,18.80
2018-07-24T00:04:11.794Z,18.80
2018-07-24T00:06:41.851Z,18.70
2018-07-24T00:09:11.426Z,18.70
2018-07-24T00:11:41.034Z,18.80
2018-07-24T00:14:10.669Z,18.70
2018-07-24T00:16:40.304Z,18.70
2018-07-24T00:19:09.955Z,18.60
2018-07-24T00:21:41.118Z,18.50
2018-07-24T00:24:10.738Z,18.50
2018-07-24T00:26:40.433Z,18.40
2018-07-24T00:29:10.030Z,18.30
2018-07-24T00:31:39.705Z,18.30
2018-07-24T00:34:09.336Z,18.20
2018-07-24T00:36:40.066Z,18.20
2018-07-24T00:39:09.630Z,18.10
2018-07-24T00:41:39.281Z,18.10
2018-07-24T00:44:08.881Z,18.00
2018-07-24T00:46:38.488Z,18.00
2018-07-24T00:49:08.981Z,18.00
2018-07-24T00:51:39.772Z,18.00
2018-07-24T00:54:09.407Z,17.90
2018-07-24T00:56:39.030Z,17.90
2018-07-24T00:59:08.632Z,17.80
2018-07-24T01:01:38.390Z,17.80
2018-07-24T01:04:08.131Z,17.80
2018-07-24T01:06:38.320Z,17.70
2018-07-24T01:09:12.529Z,17.60
2018-07-24T01:11:42.234Z,17.60
2018-07-24T01:14:11.895Z,17.50
2018-07-24T01:16:41.444Z,17.50
2018-07-24T01:19:11.094Z,17.50
2018-07-24T01:21:41.882Z,17.50
2018-07-24T01:24:11.560Z,17.40
2018-07-24T01:26:41.257Z,17.40
2018-07-24T01:29:10.867Z,17.30
2018-07-24T01:31:40.501Z,17.40
2018-07-24T01:34:10.125Z,17.40
2018-07-24T01:36:40.901Z,17.40
2018-07-24T01:39:11.525Z,17.40
2018-07-24T01:41:41.164Z,17.40
2018-07-24T01:44:10.713Z,17.40
2018-07-24T01:46:40.336Z,17.30
2018-07-24T01:49:10.439Z,17.30
2018-07-24T01:51:41.059Z,17.30
2018-07-24T01:54:10.699Z,17.20
2018-07-24T01:56:40.312Z,17.20
2018-07-24T01:59:09.904Z,17.20
2018-07-24T02:01:39.619Z,17.20
2018-07-24T02:04:09.693Z,17.10
2018-07-24T02:09:11.111Z,17.10
2018-07-24T02:11:41.202Z,17.10
2018-07-24T02:14:10.774Z,17.10
2018-07-24T02:16:40.400Z,17.10
2018-07-24T02:19:10.447Z,17.00
2018-07-24T02:21:41.511Z,17.00
2018-07-24T02:24:11.155Z,17.00
2018-07-24T02:26:40.829Z,17.00
2018-07-24T02:29:10.392Z,16.90
2018-07-24T02:31:40.197Z,16.90
2018-07-24T02:34:09.959Z,16.80
2018-07-24T02:36:40.648Z,16.80
2018-07-24T02:39:13.765Z,16.70
2018-07-24T02:41:43.478Z,16.70
2018-07-24T02:44:13.107Z,16.30
2018-07-24T02:46:42.673Z,16.70
2018-07-24T02:49:12.338Z,16.70
2018-07-24T02:51:42.567Z,16.70
2018-07-24T02:56:41.448Z,16.60
2018-07-24T02:59:11.047Z,16.60
2018-07-24T03:01:40.698Z,16.50
2018-07-24T03:04:10.461Z,16.60
2018-07-24T03:06:41.226Z,16.60
2018-07-24T03:09:12.048Z,16.60
2018-07-24T03:14:10.894Z,16.60
2018-07-24T03:16:40.570Z,16.60
2018-07-24T03:19:10.361Z,16.60
2018-07-24T03:21:41.220Z,16.60
2018-07-24T03:24:10.785Z,16.60
2018-07-24T03:26:40.427Z,16.60
2018-07-24T03:31:39.316Z,16.60
2018-07-24T03:34:09.415Z,16.60
2018-07-24T03:36:39.942Z,16.50
2018-07-24T03:39:12.274Z,16.50
2018-07-24T03:41:42.198Z,16.40
2018-07-24T03:44:12.049Z,16.50
2018-07-24T03:46:41.702Z,16.50
2018-07-24T03:49:11.257Z,16.50
2018-07-24T03:51:42.264Z,16.60
2018-07-24T03:54:11.907Z,16.60
2018-07-24T03:56:41.562Z,16.70
2018-07-24T03:59:11.145Z,16.80
2018-07-24T04:06:40.891Z,17.10
2018-07-24T04:11:41.424Z,17.30
2018-07-24T04:16:40.354Z,17.50
2018-07-24T04:19:10.092Z,17.70
2018-07-24T04:21:41.496Z,17.80
2018-07-24T04:26:40.573Z,18.10
2018-07-24T04:29:10.178Z,18.30
2018-07-24T04:31:39.840Z,18.40
2018-07-24T04:34:09.585Z,18.60
2018-07-24T04:36:39.712Z,18.70
2018-07-24T04:39:09.692Z,18.90
2018-07-24T04:41:39.360Z,19.00
2018-07-24T04:44:09.041Z,19.20
2018-07-24T04:46:38.687Z,19.40
2018-07-24T04:49:08.472Z,19.50
2018-07-24T04:51:38.695Z,19.70
2018-07-24T04:54:08.323Z,19.80
2018-07-24T04:56:38.047Z,19.90
2018-07-24T04:59:07.658Z,20.10
2018-07-24T05:01:37.244Z,20.20
2018-07-24T05:04:07.705Z,20.50
2018-07-24T05:06:38.842Z,20.80
2018-07-24T05:09:12.627Z,21.00
2018-07-24T05:11:42.568Z,21.20
2018-07-24T05:14:12.263Z,21.40
2018-07-24T05:16:43.331Z,21.60
2018-07-24T05:19:12.905Z,21.80
2018-07-24T05:21:43.940Z,22.00
2018-07-24T05:24:13.635Z,22.10
2018-07-24T05:26:44.867Z,22.30
2018-07-24T05:29:14.705Z,22.50
2018-07-24T05:31:44.478Z,22.70
2018-07-24T05:34:15.826Z,22.80
2018-07-24T05:36:46.427Z,23.20
2018-07-24T05:39:16.153Z,23.30
2018-07-24T05:41:46.065Z,23.60
2018-07-24T05:44:15.639Z,23.60
2018-07-24T05:46:45.540Z,23.80
2018-07-24T05:49:15.634Z,23.90
2018-07-24T05:51:45.435Z,24.00
2018-07-24T05:54:16.085Z,24.20
2018-07-24T05:56:46.443Z,24.20
2018-07-24T05:59:17.207Z,24.20
2018-07-24T06:01:47.118Z,24.60
2018-07-24T06:06:47.448Z,24.80
2018-07-24T06:09:17.444Z,24.90
2018-07-24T06:11:47.116Z,24.90
2018-07-24T06:14:16.917Z,24.80
2018-07-24T06:16:46.545Z,24.80
2018-07-24T06:19:16.143Z,24.50
2018-07-24T06:21:45.787Z,24.50
2018-07-24T06:24:15.361Z,24.80
2018-07-24T06:29:20.042Z,25.40
2018-07-24T06:31:49.790Z,25.60
2018-07-24T06:34:19.409Z,25.40
2018-07-24T06:36:49.011Z,25.60
2018-07-24T06:39:18.628Z,25.70
2018-07-24T06:41:48.249Z,25.80
2018-07-24T06:44:17.878Z,25.70
2018-07-24T06:46:47.398Z,25.70
2018-07-24T06:49:16.987Z,25.80
2018-07-24T06:51:46.683Z,25.90
2018-07-24T06:54:16.222Z,26.30
2018-07-24T06:56:45.769Z,26.60
2018-07-24T06:59:15.360Z,26.50
2018-07-24T07:01:45.186Z,26.10
2018-07-24T07:04:14.762Z,26.30
2018-07-24T07:06:44.937Z,26.30
2018-07-24T07:09:14.631Z,26.30
2018-07-24T07:14:15.866Z,26.30
2018-07-24T07:16:45.792Z,26.60
2018-07-24T07:19:15.407Z,26.90
2018-07-24T07:21:45.101Z,27.10
2018-07-24T07:24:14.969Z,27.20
2018-07-24T07:26:47.444Z,27.00
2018-07-24T07:29:17.283Z,27.00
2018-07-24T07:31:46.903Z,27.00
2018-07-24T07:34:16.502Z,26.90
2018-07-24T07:36:46.186Z,26.90
2018-07-24T07:39:15.837Z,27.00
2018-07-24T07:41:45.520Z,27.10
2018-07-24T07:44:15.143Z,26.90
2018-07-24T07:46:44.789Z,27.00
2018-07-24T07:49:14.396Z,27.20
2018-07-24T07:51:44.476Z,26.90
2018-07-24T07:54:14.166Z,27.10
2018-07-24T07:56:43.807Z,27.20
2018-07-24T07:59:13.416Z,27.20
2018-07-24T08:01:43.803Z,27.30
2018-07-24T08:04:13.874Z,27.30
2018-07-24T08:06:44.630Z,27.30
2018-07-24T08:09:14.319Z,27.40
2018-07-24T08:11:44.108Z,27.10
2018-07-24T08:14:14.568Z,27.20
2018-07-24T08:16:44.207Z,27.60
2018-07-24T08:19:13.958Z,27.70
2018-07-24T08:21:44.313Z,27.60
2018-07-24T08:24:14.385Z,27.60
2018-07-24T08:26:54.146Z,27.80
2018-07-24T08:29:32.778Z,27.70
2018-07-24T08:32:12.400Z,27.50
2018-07-24T08:34:52.175Z,27.30
2018-07-24T08:37:31.505Z,27.40
2018-07-24T08:40:01.301Z,26.90
2018-07-24T08:42:31.016Z,27.00
2018-07-24T08:47:29.891Z,27.40
2018-07-24T08:49:59.491Z,27.90
2018-07-24T08:52:29.334Z,28.30
2018-07-24T08:54:59.025Z,28.60
2018-07-24T08:57:28.575Z,28.80
2018-07-24T08:59:58.239Z,28.70
2018-07-24T09:02:27.821Z,28.90
2018-07-24T09:04:57.436Z,28.60
2018-07-24T09:07:28.784Z,27.90
2018-07-24T09:09:58.469Z,27.80
2018-07-24T09:12:28.101Z,27.90
2018-07-24T09:14:57.716Z,27.90
2018-07-24T09:17:28.193Z,27.30
2018-07-24T09:19:57.801Z,27.30
2018-07-24T09:22:27.369Z,27.40
2018-07-24T09:24:56.992Z,27.60
2018-07-24T09:27:26.579Z,27.70
2018-07-24T09:29:56.161Z,28.00
2018-07-24T09:32:26.784Z,28.40
2018-07-24T09:34:56.407Z,28.70
2018-07-24T09:37:27.750Z,28.80
2018-07-24T09:39:57.469Z,28.70
2018-07-24T09:42:27.072Z,28.50
2018-07-24T09:44:56.682Z,28.20
2018-07-24T09:47:27.194Z,27.90
2018-07-24T09:49:56.820Z,27.90
2018-07-24T09:52:26.534Z,28.30
2018-07-24T09:54:56.114Z,28.50
2018-07-24T09:57:25.791Z,28.60
2018-07-24T09:59:55.382Z,28.60
2018-07-24T10:02:25.125Z,28.50
2018-07-24T10:04:54.756Z,28.70
2018-07-24T10:07:24.388Z,28.60
2018-07-24T10:09:54.034Z,28.60
2018-07-24T10:12:23.684Z,28.60
2018-07-24T10:15:00.037Z,28.50
2018-07-24T10:17:34.216Z,28.30
2018-07-24T10:20:04.152Z,28.50
2018-07-24T10:22:33.870Z,28.40
2018-07-24T10:25:04.909Z,28.60
2018-07-24T10:27:34.544Z,28.80
2018-07-24T10:32:33.609Z,29.50
2018-07-24T10:35:03.339Z,29.40
2018-07-24T10:37:32.958Z,29.20
2018-07-24T10:40:02.680Z,29.10
2018-07-24T10:42:32.296Z,29.40
2018-07-24T10:45:01.891Z,29.50
2018-07-24T10:47:31.546Z,29.50
2018-07-24T10:50:01.213Z,29.50
2018-07-24T10:52:30.893Z,29.50
2018-07-24T10:55:00.573Z,29.40
2018-07-24T10:57:30.318Z,29.50
2018-07-24T10:59:59.961Z,29.70
2018-07-24T11:02:30.837Z,30.10
2018-07-24T11:05:00.455Z,30.00
2018-07-24T11:07:30.320Z,30.10
2018-07-24T11:10:00.012Z,30.00
2018-07-24T11:12:29.687Z,30.10
2018-07-24T11:14:59.330Z,30.40
2018-07-24T11:17:29.328Z,30.50
2018-07-24T11:20:06.224Z,30.50
2018-07-24T11:22:39.946Z,30.50
2018-07-24T11:25:11.302Z,30.20
2018-07-24T11:27:42.355Z,29.90
2018-07-24T11:30:12.037Z,29.60
2018-07-24T11:32:41.855Z,29.80
2018-07-24T11:35:11.748Z,30.00
2018-07-24T11:37:41.582Z,30.20
2018-07-24T11:40:11.844Z,30.00
2018-07-24T11:42:42.603Z,29.90
2018-07-24T11:45:22.965Z,29.60
2018-07-24T11:47:53.272Z,29.70
2018-07-24T11:50:23.875Z,29.40
2018-07-24T11:52:55.080Z,29.40
2018-07-24T11:55:26.149Z,29.50
2018-07-24T11:57:56.601Z,29.40
2018-07-24T12:00:26.832Z,29.50
2018-07-24T12:03:00.932Z,29.50
2018-07-24T12:05:31.322Z,29.50
2018-07-24T12:08:01.441Z,29.40
2018-07-24T12:10:31.747Z,29.50
2018-07-24T12:13:01.801Z,29.50
2018-07-24T12:15:31.893Z,29.60
2018-07-24T12:18:04.020Z,29.20
2018-07-24T12:20:45.533Z,29.20
2018-07-24T12:23:27.126Z,29.70
2018-07-24T12:26:09.553Z,30.00
2018-07-24T12:28:50.714Z,30.40
2018-07-24T12:31:30.449Z,30.50
2018-07-24T12:36:49.246Z,30.30
2018-07-24T12:39:19.882Z,29.90
2018-07-24T12:41:49.733Z,29.70
2018-07-24T12:44:25.544Z,29.60
2018-07-24T12:46:55.916Z,29.50
2018-07-24T12:49:25.521Z,29.30
2018-07-24T12:51:55.763Z,29.50
2018-07-24T12:54:25.440Z,29.70
2018-07-24T12:56:55.079Z,30.00
2018-07-24T12:59:31.370Z,30.50
2018-07-24T13:04:30.464Z,32.10
2018-07-24T13:07:01.486Z,32.60
2018-07-24T13:09:31.170Z,33.20
2018-07-24T13:12:01.209Z,33.50
2018-07-24T13:14:30.916Z,33.40
2018-07-24T13:17:00.656Z,33.70
2018-07-24T13:19:30.453Z,34.30
2018-07-24T13:22:00.374Z,34.80
2018-07-24T13:24:30.005Z,34.40
2018-07-24T13:26:59.667Z,33.80
2018-07-24T13:29:29.275Z,33.30
2018-07-24T13:31:59.611Z,32.60
2018-07-24T13:34:29.571Z,31.90
2018-07-24T13:36:59.840Z,31.30
2018-07-24T13:39:29.436Z,30.80
2018-07-24T13:44:29.006Z,30.30
2018-07-24T13:46:58.613Z,30.30
2018-07-24T13:49:28.265Z,30.30
2018-07-24T13:51:58.523Z,30.40
2018-07-24T13:54:28.355Z,30.40
2018-07-24T13:56:58.023Z,30.60
2018-07-24T13:59:28.036Z,30.80
2018-07-24T14:01:58.445Z,31.20
2018-07-24T14:04:28.325Z,31.20
2018-07-24T14:06:57.984Z,31.20
2018-07-24T14:09:28.711Z,31.40
2018-07-24T14:12:00.169Z,31.60
2018-07-24T14:14:29.754Z,31.90
2018-07-24T14:16:59.453Z,31.90
2018-07-24T14:19:29.246Z,31.90
2018-07-24T14:21:59.056Z,32.10
2018-07-24T14:24:29.144Z,32.20
2018-07-24T14:26:58.862Z,32.10
2018-07-24T14:29:29.598Z,31.90
2018-07-24T14:31:59.298Z,32.10
2018-07-24T14:34:29.513Z,32.10
2018-07-24T14:36:59.204Z,32.20
2018-07-24T14:39:30.509Z,32.40
2018-07-24T14:42:00.599Z,32.90
2018-07-24T14:44:30.934Z,33.10
2018-07-24T14:47:00.731Z,33.20
2018-07-24T14:49:30.732Z,33.50
2018-07-24T14:52:00.731Z,33.70
2018-07-24T14:54:30.646Z,33.30
2018-07-24T14:57:00.359Z,32.90
2018-07-24T14:59:30.908Z,32.00
2018-07-24T15:02:00.801Z,31.30
2018-07-24T15:07:00.124Z,30.60
2018-07-24T15:09:30.572Z,30.50
2018-07-24T15:12:00.272Z,30.40
2018-07-24T15:14:30.622Z,30.50
2018-07-24T15:21:59.908Z,31.10
2018-07-24T15:24:30.184Z,31.00
2018-07-24T15:27:07.364Z,31.20
2018-07-24T15:29:37.242Z,31.30
2018-07-24T15:32:06.868Z,30.80
2018-07-24T15:34:36.881Z,30.60
2018-07-24T15:37:07.432Z,30.30
2018-07-24T15:39:37.404Z,30.20
2018-07-24T15:42:07.571Z,30.00
2018-07-24T15:44:37.297Z,30.10
2018-07-24T15:47:07.132Z,30.00
2018-07-24T15:49:36.771Z,30.20
2018-07-24T15:52:07.360Z,30.20
2018-07-24T15:57:06.440Z,30.60
2018-07-24T15:59:36.175Z,30.90
2018-07-24T16:02:06.794Z,30.80
2018-07-24T16:04:36.591Z,30.90
2018-07-24T16:07:07.006Z,30.90
2018-07-24T16:09:38.339Z,30.80
2018-07-24T16:12:09.428Z,30.70
2018-07-24T16:14:39.291Z,30.70
2018-07-24T16:17:09.473Z,30.60
2018-07-24T16:19:39.159Z,30.30
2018-07-24T16:22:09.685Z,30.20
2018-07-24T16:24:40.920Z,30.20
2018-07-24T16:27:10.770Z,30.00
2018-07-24T16:29:40.592Z,29.80
2018-07-24T16:32:10.372Z,29.70
2018-07-24T16:34:40.043Z,29.60
2018-07-24T16:37:10.471Z,29.40
2018-07-24T16:39:41.216Z,29.30
2018-07-24T16:42:10.932Z,29.20
2018-07-24T16:44:41.419Z,29.20
2018-07-24T16:47:11.430Z,29.00
2018-07-24T16:49:41.171Z,28.80
2018-07-24T16:52:11.429Z,28.90
2018-07-24T16:54:42.874Z,28.80
2018-07-24T16:57:13.720Z,28.70
2018-07-24T16:59:43.924Z,28.60
2018-07-24T17:02:13.603Z,28.60
2018-07-24T17:04:43.292Z,28.40
2018-07-24T17:07:13.248Z,28.40
2018-07-24T17:09:43.859Z,28.30
2018-07-24T17:12:13.496Z,28.30
2018-07-24T17:14:43.093Z,28.20
2018-07-24T17:17:13.302Z,28.20
2018-07-24T17:19:43.006Z,28.10
2018-07-24T17:22:12.983Z,28.10
2018-07-24T17:24:43.098Z,28.10
2018-07-24T17:27:12.813Z,28.10
2018-07-24T17:29:42.407Z,27.90
2018-07-24T17:32:12.106Z,27.80
2018-07-24T17:34:41.740Z,27.90
2018-07-24T17:37:12.181Z,27.80
2018-07-24T17:39:42.926Z,27.80
2018-07-24T17:44:42.295Z,27.80
2018-07-24T17:47:12.092Z,27.70
2018-07-24T17:49:41.868Z,27.70
2018-07-24T17:52:11.986Z,27.70
2018-07-24T17:54:44.038Z,27.70
2018-07-24T17:57:13.988Z,27.60
2018-07-24T17:59:43.812Z,27.60
2018-07-24T18:02:13.742Z,27.60
2018-07-24T18:04:43.506Z,27.50
2018-07-24T18:07:13.631Z,27.30
2018-07-24T18:09:44.082Z,27.20
2018-07-24T18:12:13.937Z,27.30
2018-07-24T18:14:43.572Z,27.20
2018-07-24T18:17:14.203Z,27.10
2018-07-24T18:19:44.190Z,27.00
2018-07-24T18:22:14.232Z,27.00
2018-07-24T18:24:45.030Z,26.90
2018-07-24T18:27:14.690Z,26.90
2018-07-24T18:29:44.494Z,26.80
2018-07-24T18:32:14.214Z,26.70
2018-07-24T18:34:43.843Z,26.60
2018-07-24T18:37:13.634Z,26.60
2018-07-24T18:39:44.097Z,26.50
2018-07-24T18:42:13.796Z,26.50
2018-07-24T18:44:43.572Z,26.40
2018-07-24T18:47:13.288Z,26.20
2018-07-24T18:49:43.087Z,26.10
2018-07-24T18:52:13.047Z,26.10
2018-07-24T18:54:44.552Z,26.00
2018-07-24T18:57:14.299Z,25.90
2018-07-24T18:59:44.099Z,25.70
2018-07-24T19:02:13.782Z,25.70
2018-07-24T19:04:43.974Z,25.70
2018-07-24T19:07:14.573Z,25.60
2018-07-24T19:09:45.490Z,25.50
2018-07-24T19:12:15.384Z,25.40
2018-07-24T19:14:45.198Z,25.40
2018-07-24T19:17:15.645Z,25.30
2018-07-24T19:19:45.562Z,25.20
2018-07-24T19:22:15.265Z,25.20
2018-07-24T19:24:45.719Z,25.10
2018-07-24T19:27:15.504Z,25.10
2018-07-24T19:29:47.008Z,25.00
2018-07-24T19:32:16.742Z,25.00
2018-07-24T19:34:46.611Z,24.90
2018-07-24T19:37:19.608Z,24.90
2018-07-24T19:39:49.875Z,24.80
2018-07-24T19:42:22.144Z,24.70
2018-07-24T19:44:51.889Z,24.60
2018-07-24T19:47:22.148Z,24.60
2018-07-24T19:49:52.010Z,24.50
2018-07-24T19:52:21.622Z,24.40
2018-07-24T19:54:51.482Z,24.40
2018-07-24T19:57:21.311Z,24.30
2018-07-24T19:59:52.376Z,24.30
2018-07-24T20:02:22.643Z,24.20
2018-07-24T20:04:52.938Z,24.10
2018-07-24T20:07:22.761Z,24.10
2018-07-24T20:09:52.598Z,24.00
2018-07-24T20:12:22.471Z,24.00
2018-07-24T20:14:52.630Z,23.80
2018-07-24T20:17:22.449Z,23.70
2018-07-24T20:19:52.989Z,23.60
2018-07-24T20:22:27.694Z,23.40
2018-07-24T20:24:57.828Z,23.30
2018-07-24T20:27:28.250Z,23.10
2018-07-24T20:29:58.376Z,23.00
2018-07-24T20:32:28.628Z,22.90
2018-07-24T20:34:58.871Z,22.80
2018-07-24T20:37:29.016Z,22.70
2018-07-24T20:39:58.659Z,22.60
2018-07-24T20:42:29.479Z,22.50
2018-07-24T20:45:00.637Z,22.50
2018-07-24T20:47:30.796Z,22.40
2018-07-24T20:50:00.409Z,22.40
2018-07-24T20:52:30.036Z,22.30
2018-07-24T20:54:59.626Z,22.30
2018-07-24T20:57:29.423Z,22.20
2018-07-24T20:59:59.028Z,22.10
2018-07-24T21:02:28.614Z,22.10
2018-07-24T21:04:58.254Z,22.00
2018-07-24T21:07:28.837Z,22.00
2018-07-24T21:09:59.557Z,22.00
2018-07-24T21:12:29.149Z,21.90
2018-07-24T21:15:04.267Z,21.90
2018-07-24T21:17:33.902Z,21.80
2018-07-24T21:20:03.619Z,21.70
2018-07-24T21:22:34.132Z,21.60
2018-07-24T21:25:03.826Z,21.60
2018-07-24T21:27:33.960Z,21.50
2018-07-24T21:30:03.823Z,21.50
2018-07-24T21:32:34.747Z,21.40
2018-07-24T21:35:04.476Z,21.40
2018-07-24T21:37:34.434Z,21.30
2018-07-24T21:40:04.205Z,21.30
2018-07-24T21:42:33.853Z,21.20
2018-07-24T21:45:05.285Z,21.20
2018-07-24T21:47:35.306Z,21.10
2018-07-24T21:52:35.967Z,21.10
2018-07-24T21:55:05.775Z,21.00
2018-07-24T21:57:35.430Z,21.00
2018-07-24T22:00:07.852Z,20.90
2018-07-24T22:02:37.510Z,20.90
2018-07-24T22:05:07.364Z,20.80
2018-07-24T22:07:37.617Z,20.80
2018-07-24T22:10:12.576Z,20.80
2018-07-24T22:12:43.255Z,20.70
2018-07-24T22:15:20.128Z,20.70
2018-07-24T22:17:50.143Z,20.70
2018-07-24T22:20:20.263Z,20.60
2018-07-24T22:22:50.578Z,20.60
2018-07-24T22:25:20.411Z,20.60
2018-07-24T22:27:50.183Z,20.50
2018-07-24T22:30:19.966Z,20.40
2018-07-24T22:32:49.718Z,20.40
2018-07-24T22:35:19.453Z,20.40
2018-07-24T22:37:49.268Z,20.40
2018-07-24T22:40:18.947Z,20.30
2018-07-24T22:42:48.533Z,20.30
2018-07-24T22:45:18.193Z,20.20
2018-07-24T22:47:47.841Z,20.20
2018-07-24T22:50:17.509Z,20.10
2018-07-24T22:52:47.103Z,20.20
2018-07-24T22:55:16.753Z,20.20
2018-07-24T22:57:46.406Z,20.10
2018-07-24T23:00:16.129Z,20.00
2018-07-24T23:02:45.724Z,20.00
2018-07-24T23:05:15.407Z,20.00
2018-07-24T23:07:45.037Z,20.00
2018-07-24T23:10:14.715Z,19.90
2018-07-24T23:12:44.468Z,19.90
2018-07-24T23:15:14.082Z,19.90
2018-07-24T23:17:43.715Z,19.90
2018-07-24T23:20:13.306Z,19.80
2018-07-24T23:22:42.887Z,19.80
2018-07-24T23:25:12.752Z,19.80
2018-07-24T23:27:42.826Z,19.70
2018-07-24T23:30:12.409Z,19.70
2018-07-24T23:32:42.025Z,19.70
2018-07-24T23:35:11.681Z,19.60
2018-07-24T23:37:41.323Z,19.60
2018-07-24T23:40:11.550Z,19.60
2018-07-24T23:42:42.324Z,19.50
2018-07-24T23:45:11.947Z,19.40
2018-07-24T23:47:41.514Z,19.40
2018-07-24T23:50:11.167Z,19.40
2018-07-24T23:52:40.754Z,19.40
2018-07-24T23:55:11.633Z,19.30
2018-07-24T23:57:42.331Z,19.30
